TFM - Tactical Decision Aid
ID: Runway Winds: CIG/VIS Threshold:

KCVG - Cincinnati Intl, KY, US

Updated at: 1839 UTC 19 Aug 2019
Latest TAF at: 1742 UTC 19 Aug 2019

TAF Board

Time1752Z 19/19Z 19/20Z 19/21Z 19/22Z 19/23Z 20/00Z 20/01Z 20/02Z 20/03Z 20/04Z 20/05Z 20/06Z 20/07Z>>
Type OBS PRVL PRVL PRVL PRVL PRVL PRVL PRVL PRVL PRVL PRVL PRVL PRVL PRVL
VIS 10 >6 >6 >6 >6 >6 >6 >6 >6 >6 >6 >6 >6 >6
CIG -- -- -- -- -- -- -- -- -- -- -- -- -- --
Cover SCT FEW FEW FEW FEW FEW FEW FEW FEW FEW FEW FEW FEW FEW
FltCat VFR VFR VFR VFR VFR VFR VFR VFR VFR VFR VFR VFR VFR VFR
WX -- -- -- -- -- -- -- -- -- -- -- -- -- --
WDir 180 210 210 210 210 210 210 210 VRB VRB VRB VRB VRB VRB
WSpd 6 5 5 5 5 5 5 5 2 2 2 2 2 2
WGst -- -- -- -- -- -- -- -- -- -- -- -- -- --

TDA Impact Legend

  None Marginal Slight Moderate High
Visibility (sm) >5 3≤X≤5 1≤X<3 0.5≤X<1 <0.5
Ceiling (100 ft) >30 10≤X≤30 4≤X<10 2≤X<4 <2
Wind Speed (kt) <15 15≤X<25 25≤X<30 ≥30
Wind Gust (kt) <15 15≤X<25 25≤X<35 ≥35
Weather No Wx Reported VCTS -TS,-FZRA TS,FZRA +TS,+FZRA
TAF
KCVG 191742Z 1918/2024 21005KT P6SM FEW050
  FM200200 VRB02KT P6SM FEW060
  FM201300 21005KT P6SM SCT060
  FM202000 23007KT P6SM BKN060


METAR
KCVG 191752Z 18006KT 10SM FEW047 SCT100 SCT150 32/20 A3006 RMK AO2 SLP168 T03220200 10328 20222 58001
KCVG 191652Z 00000KT 10SM FEW043 FEW160 31/20 A3006 RMK AO2 SLP168 T03110200
KCVG 191552Z VRB04KT 10SM FEW041 31/19 A3007 RMK AO2 SLP170 T03060194

Radar Display
Forecast Discussion